Time;durP1;ratioP1;P1;durP2;ratioP2;P2;SDS_P1;SDS_P2;PMS_P1;PMS_P2;Temp;Humidity;BMP_temperature;BMP_pressure;BME280_temperature;BME280_humidity;BME280_pressure;Samples;Min_cycle;Max_cycle;Signal;HPM_P1;HPM_P2
2023/10/02 00:00:39;;;;;;;9.03;6.87;;;17.70;35.00;;;;;;10417174;28;20236;-73
2023/10/02 00:05:51;;;;;;;10.17;6.80;;;17.70;35.00;;;;;;10416407;28;20316;-73
2023/10/02 00:10:54;;;;;;;9.20;6.20;;;17.60;35.00;;;;;;10418015;28;20228;-73
2023/10/02 00:15:58;;;;;;;8.23;5.97;;;17.60;34.90;;;;;;10414630;28;20729;-73
2023/10/02 00:26:35;;;;;;;7.57;6.13;;;17.60;35.10;;;;;;10495152;27;20579;-72
2023/10/02 00:31:38;;;;;;;8.37;6.50;;;17.50;35.10;;;;;;10491585;27;20240;-72
2023/10/02 00:36:42;;;;;;;8.63;5.93;;;17.50;34.80;;;;;;10494233;27;21103;-72
2023/10/02 00:42:10;;;;;;;9.70;6.80;;;17.50;35.00;;;;;;10495051;27;21000;-72
2023/10/02 00:47:11;;;;;;;9.20;6.50;;;17.50;35.30;;;;;;10495389;27;20226;-71
2023/10/02 00:52:14;;;;;;;11.80;7.40;;;17.40;35.00;;;;;;10492119;27;20299;-71
2023/10/02 00:57:20;;;;;;;9.47;7.10;;;17.30;34.80;;;;;;10491059;27;20223;-71
2023/10/02 01:02:23;;;;;;;8.87;6.77;;;17.20;35.00;;;;;;10489968;27;20239;-72
2023/10/02 01:07:28;;;;;;;9.50;6.57;;;17.00;34.80;;;;;;10485979;27;20234;-71
2023/10/02 01:12:39;;;;;;;10.03;5.77;;;16.70;35.10;;;;;;10491823;27;20547;-71
2023/10/02 01:17:45;;;;;;;7.73;6.07;;;16.60;35.60;;;;;;10494934;27;20229;-71
2023/10/02 01:22:52;;;;;;;10.10;7.00;;;16.50;36.20;;;;;;10491554;27;20235;-71
2023/10/02 01:27:57;;;;;;;8.87;6.53;;;16.40;36.00;;;;;;10492412;27;20282;-72
2023/10/02 01:33:17;;;;;;;8.20;5.97;;;16.30;35.90;;;;;;10486231;27;20231;-71
2023/10/02 01:38:29;;;;;;;8.03;5.83;;;16.30;36.30;;;;;;10460870;28;20243;-71
2023/10/02 01:43:39;;;;;;;9.17;6.43;;;16.20;36.50;;;;;;10461771;28;20323;-71
2023/10/02 01:48:44;;;;;;;7.53;5.70;;;16.20;36.60;;;;;;10460873;28;20727;-72
2023/10/02 01:53:49;;;;;;;7.63;5.13;;;16.30;36.10;;;;;;10464463;28;20240;-71
2023/10/02 01:58:54;;;;;;;7.17;4.97;;;16.30;36.20;;;;;;10464533;28;20308;-71
2023/10/02 02:03:59;;;;;;;7.30;5.40;;;16.30;36.30;;;;;;10468178;28;20227;-71
2023/10/02 02:09:18;;;;;;;10.13;5.37;;;16.30;36.10;;;;;;10463930;28;20273;-71
2023/10/02 02:14:23;;;;;;;7.13;5.40;;;16.30;36.70;;;;;;10463383;28;22370;-71
2023/10/02 02:19:28;;;;;;;8.17;5.53;;;16.30;36.20;;;;;;10464339;28;20709;-71
2023/10/02 02:24:34;;;;;;;7.13;5.47;;;16.30;36.00;;;;;;10467176;28;20277;-71
2023/10/02 02:29:39;;;;;;;7.53;6.00;;;16.30;36.00;;;;;;10465811;28;20236;-71
2023/10/02 02:34:43;;;;;;;8.20;6.13;;;16.30;36.10;;;;;;10461449;28;20236;-71
2023/10/02 02:39:46;;;;;;;7.50;5.40;;;16.30;36.00;;;;;;10459590;28;20291;-71
2023/10/02 02:44:54;;;;;;;10.10;6.57;;;16.30;36.10;;;;;;10462439;28;20313;-71
2023/10/02 02:49:59;;;;;;;8.03;6.17;;;16.20;36.20;;;;;;10459786;28;20252;-71
2023/10/02 02:55:12;;;;;;;9.57;6.57;;;16.20;36.00;;;;;;10459075;28;20230;-71
2023/10/02 03:00:31;;;;;;;10.07;6.43;;;16.10;36.10;;;;;;10457752;28;20239;-71
2023/10/02 03:05:40;;;;;;;8.77;5.40;;;16.00;36.30;;;;;;10460425;28;20256;-71
2023/10/02 03:10:46;;;;;;;7.63;5.13;;;15.90;36.10;;;;;;10468428;28;20349;-71
2023/10/02 03:15:53;;;;;;;10.47;5.93;;;15.90;36.50;;;;;;10457871;28;20888;-72
2023/10/02 03:20:59;;;;;;;7.53;5.47;;;15.70;36.30;;;;;;10461542;28;20844;-71
2023/10/02 03:26:07;;;;;;;8.87;5.70;;;15.90;36.50;;;;;;10462830;28;20296;-71
2023/10/02 03:31:17;;;;;;;7.33;5.50;;;15.80;36.20;;;;;;10459147;28;20236;-71
2023/10/02 03:36:20;;;;;;;8.60;6.00;;;15.80;36.40;;;;;;10459002;28;20225;-71
2023/10/02 03:41:44;;;;;;;8.57;6.23;;;15.80;36.30;;;;;;10455408;28;20806;-71
2023/10/02 03:46:51;;;;;;;7.40;5.23;;;15.80;36.30;;;;;;10460772;28;20232;-71
2023/10/02 03:51:55;;;;;;;7.97;6.03;;;15.80;36.50;;;;;;10458025;28;20228;-71
2023/10/02 03:56:59;;;;;;;10.70;6.47;;;15.70;36.20;;;;;;10457017;28;20239;-71
2023/10/02 04:07:30;;;;;;;8.73;5.90;;;15.40;37.20;;;;;;10440030;28;20232;-71
2023/10/02 04:12:50;;;;;;;6.53;5.47;;;15.40;36.60;;;;;;10458480;28;20224;-70
2023/10/02 04:17:54;;;;;;;7.23;5.53;;;15.40;36.70;;;;;;10458137;28;20397;-70
2023/10/02 04:23:18;;;;;;;7.10;5.40;;;15.40;36.90;;;;;;10456332;28;20237;-70
2023/10/02 04:28:27;;;;;;;7.37;5.77;;;15.40;36.70;;;;;;10460581;28;20286;-70
2023/10/02 04:33:38;;;;;;;9.37;6.00;;;15.40;36.70;;;;;;10454907;28;20872;-70
2023/10/02 04:38:55;;;;;;;7.27;5.60;;;15.30;36.90;;;;;;10455589;28;20765;-70
2023/10/02 04:43:58;;;;;;;6.70;5.47;;;15.30;36.80;;;;;;10460429;28;20232;-70
2023/10/02 04:49:07;;;;;;;8.50;6.07;;;15.30;36.70;;;;;;10461160;28;20836;-70
2023/10/02 04:54:11;;;;;;;7.07;5.07;;;15.30;36.90;;;;;;10457194;28;20235;-70
2023/10/02 04:59:16;;;;;;;8.73;5.37;;;15.30;36.70;;;;;;10453920;28;20232;-70
2023/10/02 05:04:21;;;;;;;8.87;5.90;;;15.30;36.70;;;;;;10464606;28;20810;-70
2023/10/02 05:09:26;;;;;;;7.57;5.43;;;15.30;36.90;;;;;;10456725;28;20236;-70
2023/10/02 05:14:32;;;;;;;10.03;6.37;;;15.30;36.70;;;;;;10470263;28;20232;-70
2023/10/02 05:19:56;;;;;;;8.03;5.90;;;15.30;36.70;;;;;;10458977;28;20927;-71
2023/10/02 05:25:04;;;;;;;8.07;5.60;;;15.20;36.70;;;;;;10470988;28;20228;-70
2023/10/02 05:30:14;;;;;;;9.73;6.57;;;15.10;36.60;;;;;;10466471;28;20228;-70
2023/10/02 05:35:23;;;;;;;12.27;7.73;;;15.00;37.00;;;;;;10463122;28;20217;-70
2023/10/02 05:40:39;;;;;;;9.73;6.73;;;15.00;37.00;;;;;;10463716;28;20232;-70
2023/10/02 05:45:47;;;;;;;10.93;8.43;;;14.80;36.80;;;;;;10463681;28;20247;-70
2023/10/02 05:50:52;;;;;;;11.03;8.33;;;14.70;37.00;;;;;;10468383;28;20247;-70
2023/10/02 05:56:05;;;;;;;9.73;6.70;;;14.50;37.80;;;;;;10465874;28;20297;-70
2023/10/02 06:01:18;;;;;;;9.27;6.70;;;14.40;37.70;;;;;;10464205;28;20312;-70
2023/10/02 06:06:24;;;;;;;9.20;6.37;;;14.40;38.30;;;;;;10463664;28;20260;-70
2023/10/02 06:11:31;;;;;;;11.67;6.40;;;14.40;38.60;;;;;;10463913;28;20234;-70
2023/10/02 06:16:35;;;;;;;10.93;6.80;;;14.50;38.50;;;;;;10464054;28;20328;-70
2023/10/02 06:21:45;;;;;;;8.80;6.80;;;14.60;38.60;;;;;;10462668;28;20243;-70
2023/10/02 06:26:57;;;;;;;12.23;7.80;;;14.70;39.30;;;;;;10463267;28;20322;-70
2023/10/02 06:32:05;;;;;;;10.20;7.03;;;14.80;39.10;;;;;;10461183;28;20236;-70
2023/10/02 06:37:12;;;;;;;10.00;6.80;;;14.80;39.20;;;;;;10461414;28;20701;-70
2023/10/02 06:42:17;;;;;;;10.27;7.47;;;14.90;40.10;;;;;;10466500;28;20229;-70
2023/10/02 06:47:23;;;;;;;13.53;7.90;;;14.90;39.80;;;;;;10458361;28;20233;-70
2023/10/02 06:52:29;;;;;;;11.53;7.97;;;15.00;40.10;;;;;;10461058;28;20224;-70
2023/10/02 06:57:36;;;;;;;14.37;8.30;;;15.10;40.60;;;;;;10459063;28;21048;-71
2023/10/02 07:02:39;;;;;;;11.47;7.63;;;15.20;40.40;;;;;;10456870;28;20323;-71
2023/10/02 07:07:58;;;;;;;11.67;7.60;;;15.30;40.60;;;;;;10453551;28;20918;-71
2023/10/02 07:13:18;;;;;;;12.83;9.00;;;15.40;41.30;;;;;;10458475;28;20916;-71
2023/10/02 07:18:35;;;;;;;13.27;9.07;;;15.60;41.30;;;;;;10459570;28;20323;-71
2023/10/02 07:23:39;;;;;;;12.63;9.80;;;15.80;41.80;;;;;;10464431;28;20228;-71
2023/10/02 07:28:50;;;;;;;13.60;9.03;;;15.90;43.10;;;;;;10457130;28;21029;-71
2023/10/02 07:33:55;;;;;;;13.80;10.00;;;16.10;42.40;;;;;;10457213;28;20958;-71
2023/10/02 07:39:01;;;;;;;13.73;10.30;;;16.30;42.70;;;;;;10462478;28;20258;-71
2023/10/02 07:44:08;;;;;;;14.27;10.10;;;16.60;43.90;;;;;;10410183;28;20303;-70
2023/10/02 07:49:11;;;;;;;15.70;10.90;;;16.90;43.40;;;;;;10414337;28;20229;-72
2023/10/02 07:54:16;;;;;;;15.30;9.90;;;17.20;43.60;;;;;;10418038;28;20299;-71
2023/10/02 07:59:19;;;;;;;14.57;10.30;;;17.50;44.30;;;;;;10414235;28;20356;-71
2023/10/02 08:04:45;;;;;;;15.10;10.20;;;17.90;43.80;;;;;;10413353;28;20229;-71
2023/10/02 08:09:52;;;;;;;13.87;10.53;;;18.20;43.80;;;;;;10409826;28;20372;-71
2023/10/02 08:14:57;;;;;;;14.53;9.57;;;18.50;44.20;;;;;;10415558;28;20749;-71
2023/10/02 08:20:15;;;;;;;13.93;10.00;;;18.90;43.50;;;;;;10412027;28;20234;-71
2023/10/02 08:25:23;;;;;;;15.33;9.83;;;19.20;43.30;;;;;;10455343;28;20224;-71
2023/10/02 08:30:31;;;;;;;14.57;10.40;;;19.50;43.30;;;;;;10461206;28;20229;-71
2023/10/02 08:35:36;;;;;;;14.93;10.30;;;19.80;42.80;;;;;;10453404;28;20347;-71
2023/10/02 08:40:41;;;;;;;15.60;11.13;;;20.20;42.50;;;;;;10458732;28;20264;-71
2023/10/02 08:45:47;;;;;;;13.47;10.53;;;20.40;42.70;;;;;;10458632;28;20264;-71
2023/10/02 08:50:50;;;;;;;15.07;10.10;;;20.60;42.30;;;;;;10460695;28;20232;-71
2023/10/02 08:56:22;;;;;;;13.67;10.10;;;20.90;42.30;;;;;;10460507;28;20347;-71
2023/10/02 09:01:28;;;;;;;13.90;10.27;;;21.20;42.30;;;;;;10460724;28;20231;-71
2023/10/02 09:06:41;;;;;;;14.13;10.57;;;21.50;41.70;;;;;;10458871;28;20677;-71
2023/10/02 09:11:51;;;;;;;15.50;11.10;;;21.70;41.50;;;;;;10457686;28;20260;-71
2023/10/02 09:17:12;;;;;;;17.20;11.27;;;22.00;41.00;;;;;;10456989;28;20307;-71
2023/10/02 09:22:17;;;;;;;15.13;10.80;;;22.20;40.60;;;;;;10458666;28;20223;-71
2023/10/02 09:27:27;;;;;;;15.97;10.93;;;22.30;40.30;;;;;;10466184;28;20807;-71
2023/10/02 09:32:31;;;;;;;16.37;11.60;;;22.50;39.80;;;;;;10467012;28;20238;-71
2023/10/02 09:37:36;;;;;;;15.93;10.17;;;22.80;40.00;;;;;;10464416;28;20243;-72
2023/10/02 09:43:08;;;;;;;15.47;11.00;;;23.00;39.80;;;;;;10469056;28;20694;-71
2023/10/02 09:53:39;;;;;;;18.27;11.60;;;23.40;38.70;;;;;;10464568;28;20234;-72
2023/10/02 09:58:52;;;;;;;17.17;11.40;;;23.60;38.90;;;;;;10461011;28;20639;-72
2023/10/02 10:03:56;;;;;;;17.90;11.73;;;23.70;38.30;;;;;;10463655;28;20709;-72
2023/10/02 10:09:27;;;;;;;16.60;11.07;;;23.90;38.40;;;;;;10461122;28;20228;-71
2023/10/02 10:14:37;;;;;;;15.53;11.23;;;24.00;37.20;;;;;;10423604;28;20231;-71
2023/10/02 10:20:09;;;;;;;15.77;10.87;;;24.20;36.90;;;;;;10423498;28;20228;-71
2023/10/02 10:25:44;;;;;;;15.23;11.03;;;24.40;37.70;;;;;;10418395;28;20264;-72
2023/10/02 10:30:56;;;;;;;16.90;11.37;;;24.70;37.50;;;;;;10421268;28;20234;-71
2023/10/02 10:36:02;;;;;;;16.87;10.27;;;24.90;36.80;;;;;;10417529;28;20232;-71
2023/10/02 10:41:09;;;;;;;17.50;11.57;;;25.00;36.70;;;;;;10425670;28;20252;-71
2023/10/02 10:46:19;;;;;;;17.33;11.37;;;25.20;36.10;;;;;;10422630;28;20223;-72
2023/10/02 10:51:23;;;;;;;16.10;10.43;;;25.30;34.90;;;;;;10422489;28;20276;-72
2023/10/02 10:56:27;;;;;;;16.40;10.83;;;25.40;36.50;;;;;;10422720;28;20312;-71
2023/10/02 11:01:34;;;;;;;16.67;11.90;;;25.60;36.00;;;;;;10417912;28;20401;-71
2023/10/02 11:06:43;;;;;;;15.60;11.20;;;25.70;35.40;;;;;;10424011;28;20233;-72
2023/10/02 11:11:50;;;;;;;17.60;10.57;;;25.90;34.60;;;;;;10422717;28;20234;-72
2023/10/02 11:16:56;;;;;;;16.00;11.27;;;26.10;34.40;;;;;;10418514;28;20243;-71
2023/10/02 11:22:16;;;;;;;15.43;10.90;;;26.20;34.30;;;;;;10422060;28;20239;-71
2023/10/02 11:27:22;;;;;;;16.57;11.90;;;26.30;33.90;;;;;;10417135;28;20228;-71
2023/10/02 11:32:46;;;;;;;15.63;10.77;;;26.50;34.30;;;;;;10418591;28;20253;-71
2023/10/02 11:37:50;;;;;;;15.07;11.00;;;26.50;34.10;;;;;;10418856;28;20236;-71
2023/10/02 11:42:53;;;;;;;16.17;11.17;;;26.70;33.70;;;;;;10421930;28;20263;-72
2023/10/02 11:47:58;;;;;;;15.70;11.37;;;26.70;33.50;;;;;;10413389;28;20237;-71
2023/10/02 11:53:01;;;;;;;14.30;10.43;;;26.80;32.80;;;;;;10423097;28;20233;-71
2023/10/02 11:58:05;;;;;;;14.20;10.93;;;26.90;33.30;;;;;;10414666;28;20222;-71
2023/10/02 12:03:09;;;;;;;14.80;11.03;;;27.00;33.10;;;;;;10423985;28;20316;-72
2023/10/02 12:08:16;;;;;;;14.40;10.27;;;27.00;31.90;;;;;;10419132;28;20303;-71
2023/10/02 12:13:20;;;;;;;13.03;9.47;;;27.10;32.40;;;;;;10419600;28;20798;-72
2023/10/02 12:18:26;;;;;;;14.23;10.63;;;27.20;31.90;;;;;;10416719;28;20238;-72
2023/10/02 12:23:29;;;;;;;20.83;11.67;;;27.20;31.30;;;;;;10423025;28;20227;-71
2023/10/02 12:28:33;;;;;;;16.57;10.67;;;27.30;31.60;;;;;;10414883;28;20224;-71
2023/10/02 12:33:38;;;;;;;14.83;10.77;;;27.40;31.60;;;;;;10414213;28;20737;-71
2023/10/02 12:38:42;;;;;;;15.27;11.03;;;27.40;30.20;;;;;;10415550;28;20801;-71
2023/10/02 12:43:47;;;;;;;17.80;10.30;;;27.50;31.20;;;;;;10412488;28;20232;-72
2023/10/02 12:48:52;;;;;;;15.63;10.97;;;27.50;30.30;;;;;;10419908;28;20236;-71
2023/10/02 12:53:55;;;;;;;16.83;10.63;;;27.60;30.00;;;;;;10413300;28;20742;-71
2023/10/02 12:58:59;;;;;;;16.63;11.37;;;27.60;30.00;;;;;;10408736;28;20693;-71
2023/10/02 13:04:04;;;;;;;15.57;11.00;;;27.60;30.00;;;;;;10414326;28;20308;-71
2023/10/02 13:09:14;;;;;;;17.00;10.77;;;27.70;29.80;;;;;;10418328;28;20272;-71
2023/10/02 13:14:17;;;;;;;16.43;11.97;;;27.80;30.00;;;;;;10418761;28;20555;-71
2023/10/02 13:19:24;;;;;;;16.93;11.33;;;27.80;29.10;;;;;;10415359;28;20230;-71
2023/10/02 13:24:28;;;;;;;16.70;12.07;;;27.80;28.40;;;;;;10414745;28;20244;-71
2023/10/02 13:29:34;;;;;;;17.47;11.93;;;27.90;28.80;;;;;;10411349;28;20586;-71
2023/10/02 13:34:39;;;;;;;16.90;11.23;;;27.90;27.80;;;;;;10419221;28;20728;-72
2023/10/02 13:39:43;;;;;;;18.97;12.57;;;27.90;27.70;;;;;;10425724;28;20229;-71
2023/10/02 13:44:46;;;;;;;18.63;13.10;;;28.00;28.20;;;;;;10425422;28;20226;-71
2023/10/02 13:49:54;;;;;;;20.23;12.87;;;28.00;27.50;;;;;;10420615;28;20727;-70
2023/10/02 13:54:57;;;;;;;18.57;12.80;;;28.10;26.70;;;;;;10423350;28;20221;-72
2023/10/02 14:00:01;;;;;;;17.57;12.67;;;28.20;27.00;;;;;;10420766;28;20225;-71
2023/10/02 14:05:10;;;;;;;20.63;13.37;;;28.20;27.30;;;;;;10464842;28;20291;-71
2023/10/02 14:10:15;;;;;;;20.27;12.87;;;28.20;26.10;;;;;;10462746;28;20256;-71
2023/10/02 14:15:19;;;;;;;23.43;15.07;;;28.20;26.80;;;;;;10465310;28;20239;-71
2023/10/02 14:20:25;;;;;;;22.07;13.80;;;28.30;26.30;;;;;;10462678;28;20706;-71
2023/10/02 14:25:30;;;;;;;17.17;12.90;;;28.30;26.00;;;;;;10470470;28;20229;-71
2023/10/02 14:30:34;;;;;;;17.97;12.83;;;28.30;26.80;;;;;;10469182;28;20613;-71
2023/10/02 14:35:40;;;;;;;19.50;13.00;;;28.30;26.90;;;;;;10466413;28;20282;-71
2023/10/02 14:40:56;;;;;;;17.10;12.97;;;28.40;26.50;;;;;;10465248;28;20229;-71
2023/10/02 14:46:00;;;;;;;16.17;12.13;;;28.40;27.00;;;;;;10465337;28;20253;-71
2023/10/02 14:51:05;;;;;;;18.17;13.10;;;28.40;27.00;;;;;;10465076;28;20344;-70
2023/10/02 14:56:08;;;;;;;17.23;12.57;;;28.40;26.60;;;;;;10463565;28;20302;-70
2023/10/02 15:01:12;;;;;;;16.47;12.27;;;28.40;27.00;;;;;;10460091;28;20229;-70
2023/10/02 15:06:18;;;;;;;19.93;13.90;;;28.30;26.60;;;;;;10458620;28;20221;-70
2023/10/02 15:11:21;;;;;;;18.40;12.43;;;28.40;25.70;;;;;;10465271;28;20229;-70
2023/10/02 15:16:24;;;;;;;19.23;13.30;;;28.30;26.00;;;;;;10461651;28;20231;-70
2023/10/02 15:21:29;;;;;;;19.77;12.47;;;28.30;25.90;;;;;;10462692;28;20940;-71
2023/10/02 15:26:33;;;;;;;20.87;12.60;;;28.30;25.60;;;;;;10462689;28;20230;-70
2023/10/02 15:31:36;;;;;;;17.47;10.93;;;28.20;25.90;;;;;;10457672;28;20235;-70
2023/10/02 15:36:40;;;;;;;19.13;12.67;;;28.20;25.90;;;;;;10466656;28;20225;-70
2023/10/02 15:41:46;;;;;;;18.80;12.87;;;28.10;25.30;;;;;;10458832;28;20327;-70
2023/10/02 15:46:50;;;;;;;44.40;15.00;;;28.10;25.50;;;;;;10460173;28;20229;-71
2023/10/02 15:51:55;;;;;;;34.23;13.47;;;28.00;25.60;;;;;;10458129;28;20220;-70
2023/10/02 15:57:02;;;;;;;31.40;13.10;;;28.00;25.90;;;;;;10458962;28;20575;-70
2023/10/02 16:02:05;;;;;;;22.13;12.90;;;28.00;26.10;;;;;;10460180;28;20229;-71
2023/10/02 16:07:11;;;;;;;20.00;12.70;;;27.90;26.20;;;;;;10458270;28;20227;-70
2023/10/02 16:12:14;;;;;;;18.10;12.53;;;27.90;26.00;;;;;;10462102;28;20227;-71
2023/10/02 16:17:17;;;;;;;15.87;11.73;;;27.90;26.30;;;;;;10460469;28;20242;-70
2023/10/02 16:22:22;;;;;;;17.93;12.67;;;27.70;26.40;;;;;;10457652;28;20227;-71
2023/10/02 16:27:27;;;;;;;19.60;13.07;;;27.60;26.40;;;;;;10459910;28;20236;-71
2023/10/02 16:32:30;;;;;;;16.63;11.17;;;27.50;26.70;;;;;;10461773;28;20234;-71
2023/10/02 16:37:35;;;;;;;21.93;12.40;;;27.30;27.00;;;;;;10459447;28;20702;-71
2023/10/02 16:42:39;;;;;;;16.77;11.43;;;27.20;27.20;;;;;;10462704;28;20224;-72
2023/10/02 16:47:43;;;;;;;21.00;12.13;;;27.10;27.40;;;;;;10456230;28;20249;-71
2023/10/02 16:52:48;;;;;;;19.27;13.50;;;27.00;27.60;;;;;;10458813;28;20224;-71
2023/10/02 16:57:52;;;;;;;15.40;11.33;;;26.80;27.70;;;;;;10461575;28;20551;-72
2023/10/02 17:02:57;;;;;;;16.60;12.07;;;26.70;27.80;;;;;;10461003;28;20225;-71
2023/10/02 17:08:03;;;;;;;17.00;12.43;;;26.50;27.80;;;;;;10467070;28;20227;-71
2023/10/02 17:13:06;;;;;;;18.43;12.13;;;26.50;28.00;;;;;;10469685;28;21125;-71
2023/10/02 17:18:10;;;;;;;19.77;12.63;;;26.30;28.00;;;;;;10469309;28;20238;-71
2023/10/02 17:23:15;;;;;;;19.07;13.00;;;26.10;28.00;;;;;;10466054;28;20668;-71
2023/10/02 17:28:18;;;;;;;17.60;11.73;;;25.90;28.30;;;;;;10463482;28;20233;-71
2023/10/02 17:33:21;;;;;;;19.23;12.80;;;25.80;28.40;;;;;;10466265;28;24070;-71
2023/10/02 17:38:29;;;;;;;15.07;11.20;;;25.70;28.70;;;;;;10465937;28;20310;-71
2023/10/02 17:43:32;;;;;;;19.43;13.50;;;25.60;29.00;;;;;;10467025;28;20228;-71
2023/10/02 17:48:35;;;;;;;19.60;13.63;;;25.40;28.90;;;;;;10463838;28;20247;-71
2023/10/02 17:53:40;;;;;;;18.57;12.97;;;25.20;28.80;;;;;;10465763;28;20224;-71
2023/10/02 17:58:43;;;;;;;19.60;13.40;;;25.10;28.70;;;;;;10460953;28;20249;-71
2023/10/02 18:03:46;;;;;;;18.47;13.23;;;24.90;28.60;;;;;;10465926;28;20243;-71
2023/10/02 18:08:51;;;;;;;17.97;12.23;;;24.70;28.80;;;;;;10474664;28;20665;-71
2023/10/02 18:13:54;;;;;;;20.30;12.67;;;24.50;29.10;;;;;;10463367;28;20319;-71
2023/10/02 18:18:57;;;;;;;19.77;12.83;;;24.20;29.00;;;;;;10469278;28;20243;-71
2023/10/02 18:24:02;;;;;;;20.37;13.00;;;24.00;29.80;;;;;;10464670;28;20771;-71
2023/10/02 18:29:06;;;;;;;19.63;13.30;;;23.80;29.50;;;;;;10433845;28;20328;-71
2023/10/02 18:34:09;;;;;;;19.80;12.97;;;23.60;29.60;;;;;;10425462;28;20670;-71
2023/10/02 18:39:17;;;;;;;18.83;12.70;;;23.40;29.60;;;;;;10428326;28;20236;-71
2023/10/02 18:44:22;;;;;;;18.80;12.27;;;23.30;30.00;;;;;;10428333;28;20230;-71
2023/10/02 18:49:25;;;;;;;19.40;12.77;;;23.20;29.80;;;;;;10422416;28;20236;-71
2023/10/02 18:54:30;;;;;;;19.53;12.50;;;23.00;29.80;;;;;;10421075;28;20224;-71
2023/10/02 18:59:34;;;;;;;17.50;12.23;;;22.90;30.20;;;;;;10420083;28;20228;-71
2023/10/02 19:04:38;;;;;;;19.23;12.13;;;22.70;30.10;;;;;;10418316;28;20275;-71
2023/10/02 19:09:43;;;;;;;18.23;11.53;;;22.60;30.20;;;;;;10419966;28;20231;-71
2023/10/02 19:14:46;;;;;;;19.77;12.73;;;22.50;30.70;;;;;;10417191;28;20235;-71
2023/10/02 19:19:53;;;;;;;19.83;13.20;;;22.30;30.50;;;;;;10422518;28;20359;-71
2023/10/02 19:24:58;;;;;;;18.30;12.93;;;22.20;30.80;;;;;;10419428;28;20387;-71
2023/10/02 19:30:03;;;;;;;18.67;12.80;;;22.00;31.30;;;;;;10417619;28;20220;-71
2023/10/02 19:35:07;;;;;;;20.23;11.97;;;21.90;31.20;;;;;;10418459;28;20609;-71
2023/10/02 19:40:15;;;;;;;18.17;12.17;;;21.70;31.20;;;;;;10417204;28;20233;-71
2023/10/02 19:45:19;;;;;;;16.57;11.60;;;21.60;31.80;;;;;;10418273;28;20232;-71
2023/10/02 19:50:23;;;;;;;17.67;11.93;;;21.50;31.60;;;;;;10417744;28;20246;-71
2023/10/02 19:55:30;;;;;;;18.80;11.97;;;21.40;31.80;;;;;;10415686;28;20366;-71
2023/10/02 20:00:34;;;;;;;15.30;11.07;;;21.40;32.20;;;;;;10438235;28;20316;-71
2023/10/02 20:05:39;;;;;;;15.77;9.97;;;21.30;31.80;;;;;;10442078;28;20252;-71
2023/10/02 20:10:45;;;;;;;16.07;10.77;;;21.30;31.90;;;;;;10433194;28;20253;-71
2023/10/02 20:15:49;;;;;;;18.07;12.10;;;21.30;32.30;;;;;;10439870;28;20256;-71
2023/10/02 20:20:52;;;;;;;17.03;11.10;;;21.20;31.80;;;;;;10470242;28;20238;-71
2023/10/02 20:25:57;;;;;;;16.83;10.47;;;21.10;31.80;;;;;;10476739;28;20659;-71
2023/10/02 20:31:00;;;;;;;16.37;11.60;;;21.00;32.30;;;;;;10479185;28;20224;-71
2023/10/02 20:36:07;;;;;;;17.00;11.93;;;20.90;32.20;;;;;;10489845;28;21103;-71
2023/10/02 20:41:11;;;;;;;18.03;11.53;;;20.80;32.70;;;;;;10476106;28;20318;-71
2023/10/02 20:46:14;;;;;;;18.20;12.27;;;20.70;32.60;;;;;;10488650;28;20220;-71
2023/10/02 20:51:18;;;;;;;19.00;11.87;;;20.50;32.30;;;;;;10487197;28;20325;-71
2023/10/02 20:56:22;;;;;;;18.60;12.33;;;20.30;32.60;;;;;;10454253;28;20227;-71
2023/10/02 21:01:27;;;;;;;19.00;11.83;;;20.10;33.00;;;;;;10489715;28;20278;-70
2023/10/02 21:06:30;;;;;;;18.30;12.17;;;19.90;32.90;;;;;;10489178;28;20324;-71
2023/10/02 21:11:37;;;;;;;15.87;10.77;;;19.80;33.20;;;;;;10474572;28;20724;-70
2023/10/02 21:17:07;;;;;;;20.17;12.20;;;19.70;33.90;;;;;;10475709;28;20607;-71
2023/10/02 21:22:11;;;;;;;18.13;10.73;;;19.70;33.80;;;;;;10491830;28;20267;-71
2023/10/02 21:27:16;;;;;;;16.77;11.13;;;19.70;33.40;;;;;;10487998;28;20285;-71
2023/10/02 21:32:19;;;;;;;17.97;11.93;;;19.70;33.60;;;;;;10457861;28;20272;-71
2023/10/02 21:37:23;;;;;;;16.07;11.07;;;19.70;33.30;;;;;;10471909;28;20758;-71
2023/10/02 21:42:27;;;;;;;21.00;12.27;;;19.70;33.40;;;;;;10474502;28;20319;-71
2023/10/02 21:47:31;;;;;;;17.97;11.87;;;19.60;33.60;;;;;;10487934;28;20226;-71
2023/10/02 21:52:39;;;;;;;19.13;11.87;;;19.60;33.40;;;;;;10480747;28;20236;-71
2023/10/02 21:57:44;;;;;;;17.60;11.23;;;19.40;33.30;;;;;;10481409;28;20236;-71
2023/10/02 22:02:49;;;;;;;18.20;12.03;;;19.30;34.00;;;;;;10485274;28;20466;-71
2023/10/02 22:07:55;;;;;;;18.93;11.43;;;19.20;33.80;;;;;;10486941;28;20232;-71
2023/10/02 22:12:59;;;;;;;15.00;11.43;;;19.10;34.50;;;;;;10486618;28;20327;-71
2023/10/02 22:18:07;;;;;;;18.60;11.17;;;19.10;34.40;;;;;;10466805;28;20636;-71
2023/10/02 22:23:11;;;;;;;16.63;11.50;;;19.00;34.20;;;;;;10447716;28;20225;-71
2023/10/02 22:28:16;;;;;;;17.23;10.83;;;18.90;34.30;;;;;;10487367;28;20232;-71
2023/10/02 22:33:20;;;;;;;18.47;11.30;;;18.80;34.80;;;;;;10488613;28;20595;-71
2023/10/02 22:38:23;;;;;;;19.07;11.67;;;18.80;34.60;;;;;;10488577;28;20229;-71
2023/10/02 22:43:28;;;;;;;16.27;10.40;;;18.70;34.50;;;;;;10488488;28;20285;-71
2023/10/02 22:48:34;;;;;;;16.47;11.53;;;18.60;35.30;;;;;;10488377;28;20315;-71
2023/10/02 22:53:37;;;;;;;18.57;11.97;;;18.60;34.80;;;;;;10508085;28;20231;-71
2023/10/02 22:58:42;;;;;;;19.77;12.60;;;18.60;35.20;;;;;;10487163;28;20225;-71
2023/10/02 23:03:45;;;;;;;15.47;10.67;;;18.60;35.30;;;;;;10486405;28;20231;-71
2023/10/02 23:08:49;;;;;;;18.43;11.33;;;18.60;34.80;;;;;;10472586;28;20237;-71
2023/10/02 23:13:54;;;;;;;18.40;11.00;;;18.60;34.70;;;;;;10471710;28;20299;-71
2023/10/02 23:18:58;;;;;;;19.73;10.63;;;18.60;35.30;;;;;;10481556;28;20229;-71
2023/10/02 23:24:04;;;;;;;14.50;9.73;;;18.60;34.80;;;;;;10481165;28;20319;-71
2023/10/02 23:29:09;;;;;;;16.53;10.57;;;18.60;34.80;;;;;;10481368;28;20229;-71
2023/10/02 23:34:13;;;;;;;16.20;10.57;;;18.50;35.20;;;;;;10488270;28;20221;-71
2023/10/02 23:39:16;;;;;;;16.70;11.23;;;18.50;34.70;;;;;;10479192;28;20243;-71
2023/10/02 23:44:24;;;;;;;13.90;9.30;;;18.50;34.80;;;;;;10480557;28;20220;-71
2023/10/02 23:49:28;;;;;;;17.43;11.13;;;18.50;35.20;;;;;;10477114;28;20228;-71
2023/10/02 23:54:36;;;;;;;18.30;11.67;;;18.50;35.10;;;;;;10480899;28;20241;-71
2023/10/02 23:59:41;;;;;;;20.53;12.73;;;18.40;35.10;;;;;;10474420;28;20239;-71
